Meteorología y climatología de Navarra
Datos de la estación - Meteo Navarra

Estación de Urbasa GN

Altitud 886 m.


Datos desde el 11/10/2018 hasta el 12/10/2018 en horario solar
Los datos son PROVISIONALES

Anterior Página 1 de 1 Siguiente Descargar: Formato para Excel 2000 o superior   Formato csv   Formato para OpenOffice Calc
Fecha Temperatura Humedad relativa Radiación global Insolación Precipitación Velocidad viento 10 m Velocidad viento 10 m Dirección viento 10 m
ºC % W/m² s l/m² m/s km/h º
11/10/2018 0:00 12.0 94 0.0 0 0.0 3.9 13.9 146
11/10/2018 0:10 11.9 94 0.0 0 0.0 3.3 11.7 135
11/10/2018 0:20 11.9 95 0.0 0 0.0 4.0 14.5 132
11/10/2018 0:30 11.9 95 0.0 0 0.0 3.8 13.7 135
11/10/2018 0:40 11.8 95 0.0 0 0.0 4.4 15.7 144
11/10/2018 0:50 11.8 95 0.0 0 0.0 3.6 13.0 137
11/10/2018 1:00 11.9 95 0.0 0 0.0 4.2 14.9 141
11/10/2018 1:10 11.8 95 0.0 0 0.0 3.8 13.8 148
11/10/2018 1:20 11.7 95 0.0 0 0.0 4.5 16.1 156
11/10/2018 1:30 11.7 95 0.0 0 0.0 4.4 15.7 151
11/10/2018 1:40 11.8 95 0.0 0 0.0 4.1 14.7 142
11/10/2018 1:50 12.0 95 0.0 0 0.0 4.1 14.8 143
11/10/2018 2:00 12.0 95 0.0 0 0.0 3.6 12.9 149
11/10/2018 2:10 12.1 95 0.0 0 0.0 3.8 13.7 160
11/10/2018 2:20 12.2 95 0.0 0 0.0 4.1 14.7 163
11/10/2018 2:30 12.3 95 0.0 0 0.0 4.0 14.3 154
11/10/2018 2:40 12.4 95 0.0 0 0.0 4.6 16.4 149
11/10/2018 2:50 12.4 95 0.0 0 0.0 3.4 12.2 149
11/10/2018 3:00 12.3 95 0.0 0 0.0 3.7 13.2 148
11/10/2018 3:10 12.3 95 0.0 0 0.0 3.4 12.2 145
11/10/2018 3:20 12.3 95 0.0 0 0.0 3.9 14.1 151
11/10/2018 3:30 12.4 95 0.0 0 0.0 3.8 13.5 163
11/10/2018 3:40 12.4 94 0.0 0 0.0 3.4 12.3 160
11/10/2018 3:50 12.4 95 0.0 0 0.0 3.6 12.9 153
11/10/2018 4:00 12.4 95 0.0 0 0.0 4.6 16.5 144
11/10/2018 4:10 12.4 95 0.0 0 0.0 4.1 14.7 157
11/10/2018 4:20 12.3 95 0.0 0 0.0 5.0 18.0 158
11/10/2018 4:30 12.3 95 0.0 0 0.0 3.9 14.1 150
11/10/2018 4:40 12.3 94 0.0 0 0.0 4.6 16.4 148
11/10/2018 4:50 12.3 94 0.0 0 0.0 4.4 15.7 152
11/10/2018 5:00 12.3 94 0.0 0 0.0 4.2 15.0 153
11/10/2018 5:10 12.2 95 0.0 0 0.0 3.4 12.2 148
11/10/2018 5:20 12.2 95 0.0 0 0.0 3.5 12.5 139
11/10/2018 5:30 12.2 95 0.0 0 0.0 3.9 13.9 136
11/10/2018 5:40 12.3 95 0.0 0 0.0 3.5 12.7 143
11/10/2018 5:50 12.2 96 0.0 0 0.0 3.4 12.2 150
11/10/2018 6:00 12.2 96 0.0 0 0.0 3.8 13.8 144
11/10/2018 6:10 12.1 96 0.0 0 0.0 3.4 12.4 132
11/10/2018 6:20 12.1 97 0.0 0 0.0 3.1 11.2 144
11/10/2018 6:30 12.1 96 0.0 0 0.0 3.2 11.4 127
11/10/2018 6:40 12.1 95 0.0 0 0.0 4.0 14.4 151
11/10/2018 6:50 12.2 95 0.0 0 0.0 3.7 13.2 144
11/10/2018 7:00 12.2 95 0.0 0 0.0 3.7 13.5 144
11/10/2018 7:10 12.3 95 15.1 0 0.0 3.5 12.7 144
11/10/2018 7:20 12.4 95 27.4 0 0.0 4.1 14.8 157
11/10/2018 7:30 12.4 94 30.2 0 0.0 4.2 15.1 149
11/10/2018 7:40 12.5 94 37.7 0 0.0 4.1 14.9 138
11/10/2018 7:50 12.5 94 58.1 0 0.0 4.5 16.1 149
11/10/2018 8:00 12.5 94 62.8 0 0.0 4.2 14.9 163
11/10/2018 8:10 12.6 93 78.3 0 0.0 4.9 17.7 152
11/10/2018 8:20 12.8 93 75.9 0 0.0 4.6 16.6 152
11/10/2018 8:30 12.9 93 76.2 0 0.0 3.6 12.9 148
11/10/2018 8:40 13.0 92 89.2 0 0.0 4.3 15.4 148
11/10/2018 8:50 13.1 92 88.2 0 0.0 3.6 13.1 147
11/10/2018 9:00 13.2 92 94.7 0 0.0 3.6 13.1 152
11/10/2018 9:10 13.3 92 99.1 0 0.0 3.1 11.1 156
11/10/2018 9:20 13.5 91 140.8 0 0.0 3.1 11.0 169
11/10/2018 9:30 13.8 90 273.5 332 0.0 4.0 14.4 155
11/10/2018 9:40 14.4 88 294.2 428 0.0 4.1 14.7 157
11/10/2018 9:50 14.6 86 313.0 600 0.0 4.0 14.5 154
11/10/2018 10:00 15.0 84 292.8 376 0.0 4.0 14.4 160
11/10/2018 10:10 14.9 85 206.2 0 0.0 4.1 14.6 155
11/10/2018 10:20 14.9 85 210.6 0 0.0 2.9 10.3 169
11/10/2018 10:30 15.0 84 246.0 68 0.0 4.0 14.3 152
11/10/2018 10:40 15.2 83 263.5 98 0.0 4.3 15.4 152
11/10/2018 10:50 15.8 81 420.7 354 0.0 4.5 16.2 153
11/10/2018 11:00 15.5 83 274.0 122 0.0 5.1 18.2 151
11/10/2018 11:10 15.3 85 324.4 56 0.0 4.3 15.4 155
11/10/2018 11:20 15.5 83 315.6 0 0.0 4.9 17.7 154
11/10/2018 11:30 15.7 82 285.3 0 0.0 4.3 15.6 154
11/10/2018 11:40 16.0 81 230.9 0 0.0 5.2 18.6 157
11/10/2018 11:50 15.9 80 284.8 84 0.0 3.9 14.0 154
11/10/2018 12:00 16.3 79 369.1 372 0.0 4.3 15.5 148
11/10/2018 12:10 16.3 79 338.9 236 0.0 4.8 17.2 155
11/10/2018 12:20 16.3 79 252.3 0 0.0 4.5 16.3 161
11/10/2018 12:30 16.1 80 210.9 0 0.0 4.4 15.8 150
11/10/2018 12:40 16.1 81 164.0 0 0.0 4.2 15.1 157
11/10/2018 12:50 16.2 81 186.7 0 0.0 4.1 14.9 145
11/10/2018 13:00 16.2 82 139.7 0 0.0 4.3 15.4 150
11/10/2018 13:10 15.8 85 270.9 86 0.1 3.6 13.0 139
11/10/2018 13:20 16.5 84 623.2 600 0.0 4.1 14.8 139
11/10/2018 13:30 17.2 79 604.7 568 0.0 4.5 16.1 143
11/10/2018 13:40 17.7 75 648.8 600 0.0 4.4 15.7 148
11/10/2018 13:50 18.2 74 320.0 210 0.0 4.1 14.6 140
11/10/2018 14:00 17.6 75 248.3 104 0.0 3.5 12.5 133
11/10/2018 14:10 17.6 75 89.1 0 0.0 3.9 14.0 147
11/10/2018 14:20 17.1 77 116.8 0 0.0 3.6 12.9 146
11/10/2018 14:30 16.9 79 75.4 0 0.0 3.1 11.0 153
11/10/2018 14:40 16.5 82 39.4 0 0.1 3.0 10.7 165
11/10/2018 14:50 16.2 85 58.2 0 0.0 3.5 12.6 157
11/10/2018 15:00 16.2 85 94.1 0 0.0 1.9 6.8 150
11/10/2018 15:10 16.2 86 84.0 0 0.0 2.0 7.1 202
11/10/2018 15:20 16.5 84 153.1 0 0.0 2.6 9.3 158
11/10/2018 15:30 16.7 83 167.8 0 0.0 2.8 10.1 156
11/10/2018 15:40 16.4 86 121.3 0 0.0 2.5 9.1 151
11/10/2018 15:50 16.1 88 81.2 0 0.0 2.8 10.0 140
11/10/2018 16:00 16.0 88 46.9 0 0.0 1.7 6.0 138
11/10/2018 16:10 15.9 89 44.6 0 0.4 1.6 5.7 139
11/10/2018 16:20 15.6 91 27.0 0 0.5 1.7 6.0 163
11/10/2018 16:30 15.4 92 34.1 0 0.5 1.5 5.3 150
11/10/2018 16:40 15.3 93 41.4 0 0.0 1.2 4.2 123
11/10/2018 16:50 15.2 94 41.9 0 0.0 1.1 3.9 121
11/10/2018 17:00 15.1 94 26.5 0 0.0 1.2 4.3 117
11/10/2018 17:10 15.0 94 17.9 0 0.0 1.3 4.8 118
11/10/2018 17:20 15.0 93 5.7 0 0.0 0.8 2.7 111
11/10/2018 17:30 14.8 94 0.0 0 0.0 0.5 1.9 90
11/10/2018 17:40 14.4 95 0.0 0 0.0 0.3 1.2 104
11/10/2018 17:50 14.2 96 0.0 0 0.0 0.8 2.7 92
11/10/2018 18:00 14.1 97 0.0 0 0.0 0.6 2.0 140
11/10/2018 18:10 14.2 97 0.0 0 0.0 0.3 1.0 120
11/10/2018 18:20 14.2 97 0.0 0 0.0 0.5 1.9 135
11/10/2018 18:30 14.3 97 0.0 0 0.2 0.6 2.0 155
11/10/2018 18:40 14.4 97 0.0 0 0.1 0.5 1.9 261
11/10/2018 18:50 14.4 97 0.0 0 0.2 0.6 2.2 151
11/10/2018 19:00 14.3 97 0.0 0 0.1 0.7 2.5 85
11/10/2018 19:10 14.2 98 0.0 0 0.4 0.2 0.6 187
11/10/2018 19:20 14.2 98 0.0 0 0.0 1.4 4.9 136
11/10/2018 19:30 14.2 98 0.0 0 0.0 1.5 5.3 133
11/10/2018 19:40 14.3 96 0.0 0 0.0 1.5 5.4 123
11/10/2018 19:50 14.5 95 0.0 0 0.0 1.8 6.3 123
11/10/2018 20:00 14.4 94 0.0 0 0.0 1.6 5.8 126
11/10/2018 20:10 14.2 94 0.0 0 0.0 0.6 2.2 158
11/10/2018 20:20 13.8 95 0.0 0 0.0 0.4 1.3 204
11/10/2018 20:30 12.9 96 0.0 0 0.1 0.3 1.1 120
11/10/2018 20:40 12.6 97 0.0 0 0.0 0.8 2.9 167
11/10/2018 20:50 12.8 98 0.0 0 0.0 1.6 5.6 160
11/10/2018 21:00 13.7 98 0.0 0 0.0 1.4 5.0 176
11/10/2018 21:10 14.2 96 0.0 0 0.0 1.1 3.8 187
11/10/2018 21:20 14.4 95 0.0 0 0.0 1.7 6.1 173
11/10/2018 21:30 14.6 93 0.0 0 0.0 1.8 6.5 161
11/10/2018 21:40 14.9 92 0.0 0 0.0 2.5 8.9 163
11/10/2018 21:50 14.8 92 0.0 0 0.0 1.9 6.7 168
11/10/2018 22:00 14.8 93 0.0 0 0.0 1.0 3.5 187
11/10/2018 22:10 14.7 93 0.0 0 0.0 2.1 7.7 154
11/10/2018 22:20 14.8 93 0.0 0 0.0 2.2 7.7 144
11/10/2018 22:30 14.7 92 0.0 0 0.0 2.3 8.2 151
11/10/2018 22:40 14.4 93 0.0 0 0.0 1.7 6.0 169
11/10/2018 22:50 14.2 94 0.0 0 0.0 1.3 4.5 180
11/10/2018 23:00 14.1 94 0.0 0 0.0 1.6 5.8 175
11/10/2018 23:10 14.2 94 0.0 0 0.0 1.3 4.7 176
11/10/2018 23:20 14.2 94 0.0 0 0.0 1.5 5.5 159
11/10/2018 23:30 14.3 93 0.0 0 0.0 1.9 6.7 157
11/10/2018 23:40 14.4 93 0.0 0 0.0 1.7 6.2 170
11/10/2018 23:50 14.2 93 0.0 0 0.0 2.0 7.0 168
Anterior Página 1 de 1 Siguiente

NOTA: Tipo de datos según el color:
   - Valores diarios o 10 minutos correctos
   - Valores diarios calculados a partir de un número de datos 10 minutos menor que 144 y mayor que 120, o de un número de datos semihorarios menor que 48 y mayor que 40 (caso de las estaciones de Riegos de Navarra y del MARM)
   - Valores diez minutos estimados


Contacto        Enlaces        Aviso legal